sensor_id;sensor_type;location;lat;lon;timestamp;pressure;altitude;pressure_sealevel;temperature;humidity
62725;BME280;49026;52.600;4.694;2023-04-15T00:00:09;100957.22;;;7.88;59.58
62725;BME280;49026;52.600;4.694;2023-04-15T00:02:34;100960.78;;;7.86;63.93
62725;BME280;49026;52.600;4.694;2023-04-15T00:05:01;100959.84;;;7.88;59.08
62725;BME280;49026;52.600;4.694;2023-04-15T00:07:26;100955.56;;;7.86;60.90
62725;BME280;49026;52.600;4.694;2023-04-15T00:09:51;100954.59;;;7.88;58.37
62725;BME280;49026;52.600;4.694;2023-04-15T00:12:19;100952.13;;;7.84;59.58
62725;BME280;49026;52.600;4.694;2023-04-15T00:14:47;100958.38;;;7.78;61.44
62725;BME280;49026;52.600;4.694;2023-04-15T00:17:16;100957.44;;;7.81;61.78
62725;BME280;49026;52.600;4.694;2023-04-15T00:19:42;100955.56;;;7.86;68.61
62725;BME280;49026;52.600;4.694;2023-04-15T00:22:10;100958.97;;;7.88;64.34
62725;BME280;49026;52.600;4.694;2023-04-15T00:24:36;100962.41;;;7.90;60.57
62725;BME280;49026;52.600;4.694;2023-04-15T00:27:01;100956.41;;;7.86;63.13
62725;BME280;49026;52.600;4.694;2023-04-15T00:29:27;100967.72;;;7.87;68.16
62725;BME280;49026;52.600;4.694;2023-04-15T00:31:53;100963.38;;;7.87;63.92
62725;BME280;49026;52.600;4.694;2023-04-15T00:34:18;100959.88;;;7.87;62.95
62725;BME280;49026;52.600;4.694;2023-04-15T00:36:46;100964.28;;;7.85;62.31
62725;BME280;49026;52.600;4.694;2023-04-15T00:39:11;100967.78;;;7.85;63.89
62725;BME280;49026;52.600;4.694;2023-04-15T00:41:37;100971.25;;;7.86;63.20
62725;BME280;49026;52.600;4.694;2023-04-15T00:44:05;100960.81;;;7.84;63.46
62725;BME280;49026;52.600;4.694;2023-04-15T00:46:34;100970.44;;;7.84;61.67
62725;BME280;49026;52.600;4.694;2023-04-15T00:49:01;100979.25;;;7.79;67.07
62725;BME280;49026;52.600;4.694;2023-04-15T00:51:27;100978.41;;;7.79;64.78
62725;BME280;49026;52.600;4.694;2023-04-15T00:53:53;100978.44;;;7.77;61.91
62725;BME280;49026;52.600;4.694;2023-04-15T00:56:20;100980.31;;;7.72;64.53
62725;BME280;49026;52.600;4.694;2023-04-15T00:58:48;100976.97;;;7.67;68.76
62725;BME280;49026;52.600;4.694;2023-04-15T01:01:20;100975.31;;;7.63;63.58
62725;BME280;49026;52.600;4.694;2023-04-15T01:03:46;100979.69;;;7.63;65.36
62725;BME280;49026;52.600;4.694;2023-04-15T01:06:14;100977.97;;;7.61;61.53
62725;BME280;49026;52.600;4.694;2023-04-15T01:08:41;100983.31;;;7.58;61.12
62725;BME280;49026;52.600;4.694;2023-04-15T01:11:14;100974.66;;;7.55;64.69
62725;BME280;49026;52.600;4.694;2023-04-15T01:13:39;100980.72;;;7.57;61.31
62725;BME280;49026;52.600;4.694;2023-04-15T01:16:06;100983.34;;;7.57;60.98
62725;BME280;49026;52.600;4.694;2023-04-15T01:18:33;100972.94;;;7.54;62.19
62725;BME280;49026;52.600;4.694;2023-04-15T01:21:03;100980.81;;;7.54;61.39
62725;BME280;49026;52.600;4.694;2023-04-15T01:23:29;100979.22;;;7.47;65.04
62725;BME280;49026;52.600;4.694;2023-04-15T01:25:57;100982.81;;;7.42;69.63
62725;BME280;49026;52.600;4.694;2023-04-15T01:28:23;100983.81;;;7.38;63.13
62725;BME280;49026;52.600;4.694;2023-04-15T01:30:49;100984.75;;;7.34;62.37
62725;BME280;49026;52.600;4.694;2023-04-15T01:33:15;100984.00;;;7.29;61.16
62725;BME280;49026;52.600;4.694;2023-04-15T01:35:40;100979.81;;;7.23;59.98
62725;BME280;49026;52.600;4.694;2023-04-15T01:38:08;100974.72;;;7.17;60.11
62725;BME280;49026;52.600;4.694;2023-04-15T01:40:37;100979.16;;;7.14;61.15
62725;BME280;49026;52.600;4.694;2023-04-15T01:43:03;100984.50;;;7.09;61.87
62725;BME280;49026;52.600;4.694;2023-04-15T01:45:30;100984.59;;;7.04;61.96
62725;BME280;49026;52.600;4.694;2023-04-15T01:47:56;100982.94;;;7.00;60.30
62725;BME280;49026;52.600;4.694;2023-04-15T01:50:21;100983.91;;;6.96;58.95
62725;BME280;49026;52.600;4.694;2023-04-15T01:52:47;100992.72;;;6.92;62.41
62725;BME280;49026;52.600;4.694;2023-04-15T01:55:15;100987.59;;;6.88;60.94
62725;BME280;49026;52.600;4.694;2023-04-15T01:57:40;100991.16;;;6.85;60.42
62725;BME280;49026;52.600;4.694;2023-04-15T02:00:08;100991.16;;;6.85;61.71
62725;BME280;49026;52.600;4.694;2023-04-15T02:02:33;100992.03;;;6.84;62.74
62725;BME280;49026;52.600;4.694;2023-04-15T02:05:01;100992.06;;;6.82;61.73
62725;BME280;49026;52.600;4.694;2023-04-15T02:07:28;100989.47;;;6.81;62.05
62725;BME280;49026;52.600;4.694;2023-04-15T02:09:56;100987.75;;;6.80;62.72
62725;BME280;49026;52.600;4.694;2023-04-15T02:12:23;100999.06;;;6.80;62.82
62725;BME280;49026;52.600;4.694;2023-04-15T02:14:48;100999.94;;;6.81;62.51
62725;BME280;49026;52.600;4.694;2023-04-15T02:17:16;101010.44;;;6.78;61.96
62725;BME280;49026;52.600;4.694;2023-04-15T02:19:41;101003.50;;;6.77;62.08
62725;BME280;49026;52.600;4.694;2023-04-15T02:22:07;101003.56;;;6.74;61.85
62725;BME280;49026;52.600;4.694;2023-04-15T02:24:33;101012.28;;;6.73;61.27
62725;BME280;49026;52.600;4.694;2023-04-15T02:26:58;101010.66;;;6.68;62.22
62725;BME280;49026;52.600;4.694;2023-04-15T02:29:28;101014.13;;;6.67;62.63
62725;BME280;49026;52.600;4.694;2023-04-15T02:31:53;101012.41;;;6.66;64.36
62725;BME280;49026;52.600;4.694;2023-04-15T02:34:20;101012.41;;;6.66;62.18
62725;BME280;49026;52.600;4.694;2023-04-15T02:36:46;101016.78;;;6.66;63.68
62725;BME280;49026;52.600;4.694;2023-04-15T02:39:12;101015.03;;;6.66;61.36
62725;BME280;49026;52.600;4.694;2023-04-15T02:41:43;101016.00;;;6.62;65.13
62725;BME280;49026;52.600;4.694;2023-04-15T02:44:11;101022.13;;;6.60;64.22
62725;BME280;49026;52.600;4.694;2023-04-15T02:46:37;101027.31;;;6.61;61.75
62725;BME280;49026;52.600;4.694;2023-04-15T02:49:02;101024.69;;;6.61;63.36
62725;BME280;49026;52.600;4.694;2023-04-15T02:51:29;101021.22;;;6.62;61.74
62725;BME280;49026;52.600;4.694;2023-04-15T02:53:57;101034.28;;;6.62;61.67
62725;BME280;49026;52.600;4.694;2023-04-15T02:56:22;101031.66;;;6.62;61.29
62725;BME280;49026;52.600;4.694;2023-04-15T02:58:48;101035.16;;;6.61;61.47
62725;BME280;49026;52.600;4.694;2023-04-15T03:01:14;101029.94;;;6.61;61.43
62725;BME280;49026;52.600;4.694;2023-04-15T03:03:40;101029.88;;;6.64;61.32
62725;BME280;49026;52.600;4.694;2023-04-15T03:06:05;101028.16;;;6.63;61.62
62725;BME280;49026;52.600;4.694;2023-04-15T03:08:31;101029.88;;;6.64;63.02
62725;BME280;49026;52.600;4.694;2023-04-15T03:10:57;101028.06;;;6.66;62.00
62725;BME280;49026;52.600;4.694;2023-04-15T03:13:24;101039.38;;;6.68;61.65
62725;BME280;49026;52.600;4.694;2023-04-15T03:15:50;101036.78;;;6.67;62.92
62725;BME280;49026;52.600;4.694;2023-04-15T03:18:15;101042.03;;;6.67;64.19
62725;BME280;49026;52.600;4.694;2023-04-15T03:20:40;101043.69;;;6.70;63.35
62725;BME280;49026;52.600;4.694;2023-04-15T03:23:06;101045.41;;;6.71;62.97
62725;BME280;49026;52.600;4.694;2023-04-15T03:25:31;101047.16;;;6.72;60.23
62725;BME280;49026;52.600;4.694;2023-04-15T03:27:56;101050.69;;;6.67;61.15
62725;BME280;49026;52.600;4.694;2023-04-15T03:30:22;101062.94;;;6.65;63.06
62725;BME280;49026;52.600;4.694;2023-04-15T03:32:50;101062.84;;;6.70;62.14
62725;BME280;49026;52.600;4.694;2023-04-15T03:35:16;101059.38;;;6.68;61.77
62725;BME280;49026;52.600;4.694;2023-04-15T03:37:41;101069.84;;;6.66;62.91
62725;BME280;49026;52.600;4.694;2023-04-15T03:40:09;101073.38;;;6.65;62.78
62725;BME280;49026;52.600;4.694;2023-04-15T03:42:37;101066.47;;;6.61;63.70
62725;BME280;49026;52.600;4.694;2023-04-15T03:45:02;101079.53;;;6.61;67.51
62725;BME280;49026;52.600;4.694;2023-04-15T03:47:28;101078.66;;;6.62;64.79
62725;BME280;49026;52.600;4.694;2023-04-15T03:49:53;101087.38;;;6.61;66.74
62725;BME280;49026;52.600;4.694;2023-04-15T03:52:21;101084.84;;;6.58;65.18
62725;BME280;49026;52.600;4.694;2023-04-15T03:54:46;101084.94;;;6.54;64.38
62725;BME280;49026;52.600;4.694;2023-04-15T03:57:11;101096.22;;;6.54;65.53
62725;BME280;49026;52.600;4.694;2023-04-15T03:59:37;101086.66;;;6.53;67.96
62725;BME280;49026;52.600;4.694;2023-04-15T04:02:05;101088.41;;;6.54;66.78
62725;BME280;49026;52.600;4.694;2023-04-15T04:04:30;101093.66;;;6.51;67.58
62725;BME280;49026;52.600;4.694;2023-04-15T04:06:55;101089.34;;;6.50;67.12
62725;BME280;49026;52.600;4.694;2023-04-15T04:09:21;101092.03;;;6.47;64.75
62725;BME280;49026;52.600;4.694;2023-04-15T04:11:46;101088.63;;;6.42;64.17
62725;BME280;49026;52.600;4.694;2023-04-15T04:14:11;101100.06;;;6.35;66.21
62725;BME280;49026;52.600;4.694;2023-04-15T04:16:37;101106.16;;;6.35;63.85
62725;BME280;49026;52.600;4.694;2023-04-15T04:19:02;101105.38;;;6.32;64.76
62725;BME280;49026;52.600;4.694;2023-04-15T04:21:27;101107.13;;;6.29;64.21
62725;BME280;49026;52.600;4.694;2023-04-15T04:23:53;101107.16;;;6.28;62.63
62725;BME280;49026;52.600;4.694;2023-04-15T04:26:21;101110.72;;;6.24;62.61
62725;BME280;49026;52.600;4.694;2023-04-15T04:28:47;101107.28;;;6.22;63.88
62725;BME280;49026;52.600;4.694;2023-04-15T04:31:12;101125.53;;;6.22;65.25
62725;BME280;49026;52.600;4.694;2023-04-15T04:33:37;101121.16;;;6.22;65.33
62725;BME280;49026;52.600;4.694;2023-04-15T04:36:03;101128.19;;;6.20;62.21
62725;BME280;49026;52.600;4.694;2023-04-15T04:38:28;101126.53;;;6.13;62.68
62725;BME280;49026;52.600;4.694;2023-04-15T04:40:53;101129.13;;;6.15;64.49
62725;BME280;49026;52.600;4.694;2023-04-15T04:43:19;101137.81;;;6.17;63.59
62725;BME280;49026;52.600;4.694;2023-04-15T04:45:44;101136.13;;;6.12;62.46
62725;BME280;49026;52.600;4.694;2023-04-15T04:48:12;101144.91;;;6.08;61.34
62725;BME280;49026;52.600;4.694;2023-04-15T04:50:37;101155.41;;;6.04;61.73
62725;BME280;49026;52.600;4.694;2023-04-15T04:53:06;101160.56;;;6.08;65.41
62725;BME280;49026;52.600;4.694;2023-04-15T04:55:33;101157.94;;;6.10;63.53
62725;BME280;49026;52.600;4.694;2023-04-15T04:58:01;101162.25;;;6.09;63.55
62725;BME280;49026;52.600;4.694;2023-04-15T05:00:26;101164.88;;;6.08;63.12
62725;BME280;49026;52.600;4.694;2023-04-15T05:02:52;101168.41;;;6.07;62.54
62725;BME280;49026;52.600;4.694;2023-04-15T05:05:17;101168.44;;;6.04;64.59
62725;BME280;49026;52.600;4.694;2023-04-15T05:07:45;101182.28;;;6.09;65.58
62725;BME280;49026;52.600;4.694;2023-04-15T05:10:13;101182.25;;;6.12;67.15
62725;BME280;49026;52.600;4.694;2023-04-15T05:12:39;101187.41;;;6.15;68.04
62725;BME280;49026;52.600;4.694;2023-04-15T05:15:05;101194.34;;;6.16;67.02
62725;BME280;49026;52.600;4.694;2023-04-15T05:17:30;101198.69;;;6.17;71.39
62725;BME280;49026;52.600;4.694;2023-04-15T05:19:57;101197.81;;;6.18;69.50
62725;BME280;49026;52.600;4.694;2023-04-15T05:22:22;101210.78;;;6.21;68.25
62725;BME280;49026;52.600;4.694;2023-04-15T05:24:47;101212.50;;;6.22;67.32
62725;BME280;49026;52.600;4.694;2023-04-15T05:27:13;101211.63;;;6.23;66.31
62725;BME280;49026;52.600;4.694;2023-04-15T05:29:38;101221.16;;;6.26;68.45
62725;BME280;49026;52.600;4.694;2023-04-15T05:32:04;101224.53;;;6.31;69.21
62725;BME280;49026;52.600;4.694;2023-04-15T05:34:29;101220.06;;;6.39;66.64
62725;BME280;49026;52.600;4.694;2023-04-15T05:36:55;101227.78;;;6.47;65.26
62725;BME280;49026;52.600;4.694;2023-04-15T05:39:20;101227.56;;;6.59;65.85
62725;BME280;49026;52.600;4.694;2023-04-15T05:41:46;101234.31;;;6.71;66.45
62725;BME280;49026;52.600;4.694;2023-04-15T05:44:11;101232.41;;;6.81;64.21
62725;BME280;49026;52.600;4.694;2023-04-15T05:46:36;101242.72;;;6.89;64.76
62725;BME280;49026;52.600;4.694;2023-04-15T05:49:04;101249.53;;;6.96;65.62
62725;BME280;49026;52.600;4.694;2023-04-15T05:51:32;101247.69;;;7.02;65.94
62725;BME280;49026;52.600;4.694;2023-04-15T05:53:59;101261.47;;;7.09;66.68
62725;BME280;49026;52.600;4.694;2023-04-15T05:56:25;101262.22;;;7.16;63.79
62725;BME280;49026;52.600;4.694;2023-04-15T05:58:51;101265.63;;;7.21;66.90
62725;BME280;49026;52.600;4.694;2023-04-15T06:01:16;101272.47;;;7.27;68.54
62725;BME280;49026;52.600;4.694;2023-04-15T06:03:44;101274.94;;;7.34;66.51
62725;BME280;49026;52.600;4.694;2023-04-15T06:06:12;101268.69;;;7.41;67.15
62725;BME280;49026;52.600;4.694;2023-04-15T06:08:40;101277.25;;;7.50;66.43
62725;BME280;49026;52.600;4.694;2023-04-15T06:11:06;101291.03;;;7.58;65.61
62725;BME280;49026;52.600;4.694;2023-04-15T06:13:31;101287.44;;;7.64;67.07
62725;BME280;49026;52.600;4.694;2023-04-15T06:15:59;101296.81;;;7.74;63.92
62725;BME280;49026;52.600;4.694;2023-04-15T06:18:24;101295.75;;;7.83;63.93
62725;BME280;49026;52.600;4.694;2023-04-15T06:20:49;101307.78;;;7.91;65.85
62725;BME280;49026;52.600;4.694;2023-04-15T06:23:15;101319.78;;;8.00;66.19
62725;BME280;49026;52.600;4.694;2023-04-15T06:25:41;101312.63;;;8.08;66.65
62725;BME280;49026;52.600;4.694;2023-04-15T06:28:06;101322.91;;;8.18;65.42
62725;BME280;49026;52.600;4.694;2023-04-15T06:30:31;101312.16;;;8.30;65.76
62725;BME280;49026;52.600;4.694;2023-04-15T06:32:56;101325.84;;;8.41;65.44
62725;BME280;49026;52.600;4.694;2023-04-15T06:35:22;101329.13;;;8.52;66.08
62725;BME280;49026;52.600;4.694;2023-04-15T06:37:54;101331.44;;;8.65;68.68
62725;BME280;49026;52.600;4.694;2023-04-15T06:40:23;101332.03;;;8.76;66.09
62725;BME280;49026;52.600;4.694;2023-04-15T06:42:50;101334.22;;;8.93;65.00
62725;BME280;49026;52.600;4.694;2023-04-15T06:45:16;101339.88;;;9.12;68.62
62725;BME280;49026;52.600;4.694;2023-04-15T06:47:41;101343.91;;;9.25;66.83
62725;BME280;49026;52.600;4.694;2023-04-15T06:50:08;101350.59;;;9.37;69.61
62725;BME280;49026;52.600;4.694;2023-04-15T06:52:34;101346.00;;;9.45;66.81
62725;BME280;49026;52.600;4.694;2023-04-15T06:55:02;101350.88;;;9.58;65.41
62725;BME280;49026;52.600;4.694;2023-04-15T06:57:27;101355.81;;;9.69;65.81
62725;BME280;49026;52.600;4.694;2023-04-15T06:59:53;101353.81;;;9.78;64.85
62725;BME280;49026;52.600;4.694;2023-04-15T07:02:18;101355.28;;;9.87;65.02
62725;BME280;49026;52.600;4.694;2023-04-15T07:04:44;101361.31;;;9.92;65.39
62725;BME280;49026;52.600;4.694;2023-04-15T07:07:09;101362.97;;;9.95;64.79
62725;BME280;49026;52.600;4.694;2023-04-15T07:09:35;101368.88;;;10.01;65.50
62725;BME280;49026;52.600;4.694;2023-04-15T07:12:02;101366.09;;;10.08;64.69
62725;BME280;49026;52.600;4.694;2023-04-15T07:14:27;101365.00;;;10.15;64.32
62725;BME280;49026;52.600;4.694;2023-04-15T07:16:53;101373.41;;;10.26;64.38
62725;BME280;49026;52.600;4.694;2023-04-15T07:19:21;101375.69;;;10.38;63.99
62725;BME280;49026;52.600;4.694;2023-04-15T07:21:48;101371.91;;;10.47;64.11
62725;BME280;49026;52.600;4.694;2023-04-15T07:24:15;101388.25;;;10.57;64.04
62725;BME280;49026;52.600;4.694;2023-04-15T07:26:46;101393.41;;;10.60;63.94
62725;BME280;49026;52.600;4.694;2023-04-15T07:29:11;101399.44;;;10.64;63.58
62725;BME280;49026;52.600;4.694;2023-04-15T07:31:36;101401.25;;;10.62;63.53
62725;BME280;49026;52.600;4.694;2023-04-15T07:34:05;101412.56;;;10.64;63.34
62725;BME280;49026;52.600;4.694;2023-04-15T07:36:33;101401.13;;;10.66;63.70
62725;BME280;49026;52.600;4.694;2023-04-15T07:38:59;101410.53;;;10.73;63.68
62725;BME280;49026;52.600;4.694;2023-04-15T07:41:29;101410.63;;;10.97;63.62
62725;BME280;49026;52.600;4.694;2023-04-15T07:43:55;101413.59;;;11.15;63.84
62725;BME280;49026;52.600;4.694;2023-04-15T07:46:20;101412.16;;;11.31;63.66
62725;BME280;49026;52.600;4.694;2023-04-15T07:48:48;101422.06;;;11.49;63.71
62725;BME280;49026;52.600;4.694;2023-04-15T07:51:14;101429.31;;;11.68;64.04
62725;BME280;49026;52.600;4.694;2023-04-15T07:53:39;101426.56;;;11.71;61.37
62725;BME280;49026;52.600;4.694;2023-04-15T07:56:04;101437.75;;;11.78;62.50
62725;BME280;49026;52.600;4.694;2023-04-15T07:58:32;101437.78;;;11.76;61.23
62725;BME280;49026;52.600;4.694;2023-04-15T08:00:58;101447.50;;;11.74;61.76
62725;BME280;49026;52.600;4.694;2023-04-15T08:03:26;101448.31;;;11.76;63.14
62725;BME280;49026;52.600;4.694;2023-04-15T08:05:51;101455.72;;;11.90;63.36
62725;BME280;49026;52.600;4.694;2023-04-15T08:08:16;101460.81;;;11.96;61.93
62725;BME280;49026;52.600;4.694;2023-04-15T08:10:42;101465.09;;;11.99;61.41
62725;BME280;49026;52.600;4.694;2023-04-15T08:13:07;101464.31;;;11.97;60.68
62725;BME280;49026;52.600;4.694;2023-04-15T08:15:35;101464.94;;;12.03;61.15
62725;BME280;49026;52.600;4.694;2023-04-15T08:18:05;101467.56;;;12.03;61.45
62725;BME280;49026;52.600;4.694;2023-04-15T08:20:30;101478.97;;;12.04;60.81
62725;BME280;49026;52.600;4.694;2023-04-15T08:22:55;101479.75;;;12.06;61.09
62725;BME280;49026;52.600;4.694;2023-04-15T08:25:21;101476.69;;;12.18;61.20
62725;BME280;49026;52.600;4.694;2023-04-15T08:27:46;101484.75;;;12.37;61.57
62725;BME280;49026;52.600;4.694;2023-04-15T08:30:19;101489.84;;;12.66;61.81
62725;BME280;49026;52.600;4.694;2023-04-15T08:32:45;101489.41;;;12.78;61.15
62725;BME280;49026;52.600;4.694;2023-04-15T08:35:11;101490.06;;;12.83;61.32
62725;BME280;49026;52.600;4.694;2023-04-15T08:37:39;101493.56;;;12.84;60.23
62725;BME280;49026;52.600;4.694;2023-04-15T08:40:05;101502.22;;;12.87;61.10
62725;BME280;49026;52.600;4.694;2023-04-15T08:42:41;101520.91;;;12.81;60.33
62725;BME280;49026;52.600;4.694;2023-04-15T08:45:08;101507.22;;;12.71;59.82
62725;BME280;49026;52.600;4.694;2023-04-15T08:47:38;101511.06;;;12.63;58.81
62725;BME280;49026;52.600;4.694;2023-04-15T08:50:08;101512.09;;;12.58;60.06
62725;BME280;49026;52.600;4.694;2023-04-15T08:52:35;101511.88;;;12.65;60.04
62725;BME280;49026;52.600;4.694;2023-04-15T08:55:01;101509.97;;;12.68;57.47
62725;BME280;49026;52.600;4.694;2023-04-15T08:57:28;101520.59;;;12.67;57.84
62725;BME280;49026;52.600;4.694;2023-04-15T08:59:55;101526.38;;;12.76;55.51
62725;BME280;49026;52.600;4.694;2023-04-15T09:02:22;101526.00;;;12.86;58.75
62725;BME280;49026;52.600;4.694;2023-04-15T09:04:47;101540.50;;;12.97;57.79
62725;BME280;49026;52.600;4.694;2023-04-15T09:07:13;101529.41;;;13.11;58.22
62725;BME280;49026;52.600;4.694;2023-04-15T09:09:38;101535.56;;;13.34;58.18
62725;BME280;49026;52.600;4.694;2023-04-15T09:12:08;101537.31;;;13.56;58.41
62725;BME280;49026;52.600;4.694;2023-04-15T09:14:34;101544.72;;;13.68;57.56
62725;BME280;49026;52.600;4.694;2023-04-15T09:17:02;101536.81;;;13.68;57.26
62725;BME280;49026;52.600;4.694;2023-04-15T09:19:28;101548.19;;;13.70;57.01
62725;BME280;49026;52.600;4.694;2023-04-15T09:21:56;101541.41;;;13.85;58.17
62725;BME280;49026;52.600;4.694;2023-04-15T09:24:22;101556.59;;;14.00;57.31
62725;BME280;49026;52.600;4.694;2023-04-15T09:26:53;101556.25;;;13.87;57.56
62725;BME280;49026;52.600;4.694;2023-04-15T09:29:19;101565.78;;;13.92;58.70
62725;BME280;49026;52.600;4.694;2023-04-15T09:31:48;101571.56;;;14.00;58.14
62725;BME280;49026;52.600;4.694;2023-04-15T09:34:13;101582.22;;;13.98;55.94
62725;BME280;49026;52.600;4.694;2023-04-15T09:36:56;101586.69;;;13.96;52.91
62725;BME280;49026;52.600;4.694;2023-04-15T09:39:22;101581.09;;;14.04;56.19
62725;BME280;49026;52.600;4.694;2023-04-15T09:42:05;101584.25;;;14.33;57.54
62725;BME280;49026;52.600;4.694;2023-04-15T09:44:31;101590.19;;;14.58;56.60
62725;BME280;49026;52.600;4.694;2023-04-15T09:46:56;101597.25;;;14.78;56.88
62725;BME280;49026;52.600;4.694;2023-04-15T09:49:26;101592.53;;;14.85;59.17
62725;BME280;49026;52.600;4.694;2023-04-15T09:51:58;101610.81;;;14.90;58.39
62725;BME280;49026;52.600;4.694;2023-04-15T09:54:24;101602.81;;;14.72;58.30
62725;BME280;49026;52.600;4.694;2023-04-15T09:56:51;101608.69;;;14.58;58.77
62725;BME280;49026;52.600;4.694;2023-04-15T09:59:16;101614.09;;;14.76;58.39
62725;BME280;49026;52.600;4.694;2023-04-15T10:01:43;101626.41;;;14.77;56.84
62725;BME280;49026;52.600;4.694;2023-04-15T10:04:18;101620.16;;;14.38;57.27
62725;BME280;49026;52.600;4.694;2023-04-15T10:06:46;101616.41;;;13.81;56.41
62725;BME280;49026;52.600;4.694;2023-04-15T10:09:12;101622.72;;;13.55;57.43
62725;BME280;49026;52.600;4.694;2023-04-15T10:11:37;101616.41;;;13.81;57.16
62725;BME280;49026;52.600;4.694;2023-04-15T10:14:04;101625.00;;;14.06;57.41
62725;BME280;49026;52.600;4.694;2023-04-15T10:16:31;101618.53;;;14.34;57.42
62725;BME280;49026;52.600;4.694;2023-04-15T10:19:00;101631.91;;;14.11;56.97
62725;BME280;49026;52.600;4.694;2023-04-15T10:21:29;101624.63;;;13.95;57.59
62725;BME280;49026;52.600;4.694;2023-04-15T10:23:55;101632.09;;;14.26;55.97
62725;BME280;49026;52.600;4.694;2023-04-15T10:26:21;101635.47;;;14.30;57.46
62725;BME280;49026;52.600;4.694;2023-04-15T10:28:47;101634.16;;;14.40;57.08
62725;BME280;49026;52.600;4.694;2023-04-15T10:31:13;101641.34;;;14.16;56.71
62725;BME280;49026;52.600;4.694;2023-04-15T10:33:40;101646.00;;;13.89;56.65
62725;BME280;49026;52.600;4.694;2023-04-15T10:36:06;101653.56;;;13.54;56.58
62725;BME280;49026;52.600;4.694;2023-04-15T10:38:42;101650.22;;;13.93;57.03
62725;BME280;49026;52.600;4.694;2023-04-15T10:43:53;101651.19;;;14.13;56.60
62725;BME280;49026;52.600;4.694;2023-04-15T10:46:40;101669.69;;;13.70;57.32
62725;BME280;49026;52.600;4.694;2023-04-15T10:49:14;101663.69;;;13.43;57.02
62725;BME280;49026;52.600;4.694;2023-04-15T10:51:50;101665.28;;;13.47;57.69
62725;BME280;49026;52.600;4.694;2023-04-15T10:54:36;101669.72;;;13.68;55.13
62725;BME280;49026;52.600;4.694;2023-04-15T10:59:29;101677.84;;;14.06;56.36
62725;BME280;49026;52.600;4.694;2023-04-15T11:01:56;101672.94;;;14.19;55.61
62725;BME280;49026;52.600;4.694;2023-04-15T11:04:56;101690.59;;;14.39;54.33
62725;BME280;49026;52.600;4.694;2023-04-15T11:12:45;101679.19;;;14.59;55.08
62725;BME280;49026;52.600;4.694;2023-04-15T11:15:33;101688.38;;;14.71;55.44
62725;BME280;49026;52.600;4.694;2023-04-15T11:20:40;101701.06;;;14.84;55.21
62725;BME280;49026;52.600;4.694;2023-04-15T11:23:08;101709.63;;;14.27;54.38
62725;BME280;49026;52.600;4.694;2023-04-15T11:25:34;101710.41;;;14.29;55.23
62725;BME280;49026;52.600;4.694;2023-04-15T11:28:02;101698.81;;;14.54;54.81
62725;BME280;49026;52.600;4.694;2023-04-15T11:30:34;101706.63;;;14.57;55.11
62725;BME280;49026;52.600;4.694;2023-04-15T11:33:03;101718.41;;;14.27;54.67
62725;BME280;49026;52.600;4.694;2023-04-15T11:35:29;101692.19;;;14.43;54.70
62725;BME280;49026;52.600;4.694;2023-04-15T11:37:55;101709.47;;;14.73;54.60
62725;BME280;49026;52.600;4.694;2023-04-15T11:40:27;101716.78;;;14.87;54.19
62725;BME280;49026;52.600;4.694;2023-04-15T11:45:33;101735.41;;;14.42;54.62
62725;BME280;49026;52.600;4.694;2023-04-15T11:48:10;101728.22;;;14.46;54.74
62725;BME280;49026;52.600;4.694;2023-04-15T11:50:36;101729.91;;;14.69;55.22
62725;BME280;49026;52.600;4.694;2023-04-15T11:53:05;101712.41;;;15.06;55.23
62725;BME280;49026;52.600;4.694;2023-04-15T11:55:40;101734.94;;;14.75;54.13
62725;BME280;49026;52.600;4.694;2023-04-15T12:00:38;101746.59;;;14.49;55.26
62725;BME280;49026;52.600;4.694;2023-04-15T12:03:16;101741.50;;;14.44;55.41
62725;BME280;49026;52.600;4.694;2023-04-15T12:06:21;101735.31;;;14.66;51.77
62725;BME280;49026;52.600;4.694;2023-04-15T12:08:54;101735.84;;;14.74;52.53
62725;BME280;49026;52.600;4.694;2023-04-15T12:13:58;101750.28;;;14.67;55.38
62725;BME280;49026;52.600;4.694;2023-04-15T12:16:24;101742.53;;;14.83;54.10
62725;BME280;49026;52.600;4.694;2023-04-15T12:18:54;101750.41;;;14.85;53.34
62725;BME280;49026;52.600;4.694;2023-04-15T12:21:26;101751.19;;;14.87;53.82
62725;BME280;49026;52.600;4.694;2023-04-15T12:23:53;101759.41;;;15.01;53.99
62725;BME280;49026;52.600;4.694;2023-04-15T12:26:27;101757.66;;;15.21;54.04
62725;BME280;49026;52.600;4.694;2023-04-15T12:29:06;101761.53;;;15.32;54.55
62725;BME280;49026;52.600;4.694;2023-04-15T12:31:33;101766.63;;;15.37;53.48
62725;BME280;49026;52.600;4.694;2023-04-15T12:34:02;101772.63;;;15.01;53.26
62725;BME280;49026;52.600;4.694;2023-04-15T12:36:28;101781.56;;;14.78;54.48
62725;BME280;49026;52.600;4.694;2023-04-15T12:38:55;101775.47;;;14.96;53.20
62725;BME280;49026;52.600;4.694;2023-04-15T12:41:21;101787.69;;;15.19;54.38
62725;BME280;49026;52.600;4.694;2023-04-15T12:43:48;101783.06;;;15.25;54.20
62725;BME280;49026;52.600;4.694;2023-04-15T12:46:14;101788.66;;;14.77;53.58
62725;BME280;49026;52.600;4.694;2023-04-15T12:48:42;101784.94;;;15.02;53.36
62725;BME280;49026;52.600;4.694;2023-04-15T12:51:07;101790.88;;;15.28;54.41
62725;BME280;49026;52.600;4.694;2023-04-15T12:53:32;101788.47;;;15.61;52.79
62725;BME280;49026;52.600;4.694;2023-04-15T12:56:01;101777.81;;;15.44;53.32
62725;BME280;49026;52.600;4.694;2023-04-15T12:58:26;101799.94;;;15.01;53.60
62725;BME280;49026;52.600;4.694;2023-04-15T13:00:54;101800.78;;;14.61;54.09
62725;BME280;49026;52.600;4.694;2023-04-15T13:03:23;101799.94;;;14.16;53.73
62725;BME280;49026;52.600;4.694;2023-04-15T13:05:49;101805.69;;;13.82;54.69
62725;BME280;49026;52.600;4.694;2023-04-15T13:08:14;101800.16;;;13.41;54.99
62725;BME280;49026;52.600;4.694;2023-04-15T13:10:42;101797.91;;;13.05;55.39
62725;BME280;49026;52.600;4.694;2023-04-15T13:13:07;101812.75;;;12.82;55.77
62725;BME280;49026;52.600;4.694;2023-04-15T13:15:35;101829.28;;;12.60;56.27